Time;durP1;ratioP1;P1;durP2;ratioP2;P2;SDS_P1;SDS_P2;PMS_P1;PMS_P2;Temp;Humidity;BMP_temperature;BMP_pressure;BME280_temperature;BME280_humidity;BME280_pressure;Samples;Min_cycle;Max_cycle;Signal;HPM_P1;HPM_P2
2023/01/22 00:02:25;;;;;;;14.30;5.63;;;;;;;;;;4953281;28;20071;-72
2023/01/22 00:04:51;;;;;;;11.57;6.20;;;;;;;;;;4937955;29;20046;-72
2023/01/22 00:07:18;;;;;;;9.97;5.40;;;;;;;;;;4938987;29;20498;-72
2023/01/22 00:09:44;;;;;;;15.27;6.17;;;;;;;;;;4938845;29;20078;-72
2023/01/22 00:12:09;;;;;;;15.70;6.00;;;;;;;;;;4939035;29;20485;-72
2023/01/22 00:14:35;;;;;;;13.47;6.10;;;;;;;;;;4938684;29;20036;-72
2023/01/22 00:17:01;;;;;;;14.27;6.47;;;;;;;;;;4938763;29;20098;-71
2023/01/22 00:19:27;;;;;;;15.50;6.33;;;;;;;;;;4938977;29;20046;-71
2023/01/22 00:21:52;;;;;;;14.50;6.53;;;;;;;;;;4938778;29;20070;-72
2023/01/22 00:24:18;;;;;;;12.60;5.63;;;;;;;;;;4954504;29;20042;-71
2023/01/22 00:26:44;;;;;;;14.47;6.27;;;;;;;;;;4938623;29;20137;-72
2023/01/22 00:29:13;;;;;;;10.20;5.17;;;;;;;;;;4938884;29;20175;-71
2023/01/22 00:31:38;;;;;;;15.20;6.07;;;;;;;;;;4922830;29;20193;-72
2023/01/22 00:34:04;;;;;;;18.00;6.07;;;;;;;;;;4938807;29;20122;-72
2023/01/22 00:36:30;;;;;;;16.57;6.60;;;;;;;;;;4954495;29;20027;-72
2023/01/22 00:38:56;;;;;;;15.17;5.93;;;;;;;;;;4938158;29;20039;-72
2023/01/22 00:41:21;;;;;;;17.30;6.20;;;;;;;;;;4936975;29;20138;-72
2023/01/22 00:43:48;;;;;;;16.27;6.07;;;;;;;;;;4937928;29;20043;-72
2023/01/22 00:46:15;;;;;;;18.30;6.27;;;;;;;;;;4952344;29;20034;-72
2023/01/22 00:48:44;;;;;;;14.43;5.63;;;;;;;;;;4920535;29;20054;-72
2023/01/22 00:51:11;;;;;;;15.40;6.40;;;;;;;;;;4936189;29;20154;-72
2023/01/22 00:53:40;;;;;;;14.40;6.00;;;;;;;;;;4936065;29;20090;-71
2023/01/22 00:56:06;;;;;;;13.33;6.03;;;;;;;;;;4935922;29;20039;-72
2023/01/22 00:58:32;;;;;;;13.23;5.63;;;;;;;;;;4951959;28;20122;-72
2023/01/22 01:01:00;;;;;;;16.67;6.30;;;;;;;;;;4951824;29;20171;-72
2023/01/22 01:03:35;;;;;;;18.47;5.90;;;;;;;;;;5193186;27;20168;-71
2023/01/22 01:06:02;;;;;;;15.40;6.20;;;;;;;;;;5136787;27;20114;-71
2023/01/22 01:08:29;;;;;;;13.77;6.50;;;;;;;;;;5116742;27;20046;-71
2023/01/22 01:10:56;;;;;;;13.73;6.37;;;;;;;;;;5116671;27;20035;-71
2023/01/22 01:13:22;;;;;;;19.47;6.63;;;;;;;;;;5116198;27;20050;-71
2023/01/22 01:15:48;;;;;;;19.87;6.70;;;;;;;;;;5116007;27;20042;-71
2023/01/22 01:18:15;;;;;;;21.73;6.57;;;;;;;;;;5116103;27;20030;-72
2023/01/22 01:20:41;;;;;;;16.50;6.23;;;;;;;;;;5150690;27;20039;-71
2023/01/22 01:23:06;;;;;;;16.33;6.67;;;;;;;;;;5151381;27;20178;-70
2023/01/22 01:25:32;;;;;;;15.23;5.87;;;;;;;;;;5133067;27;20468;-71
2023/01/22 01:27:58;;;;;;;18.80;7.00;;;;;;;;;;5115872;27;20380;-71
2023/01/22 01:30:24;;;;;;;17.27;6.60;;;;;;;;;;5098907;27;20426;-71
2023/01/22 01:32:49;;;;;;;18.47;7.20;;;;;;;;;;5116508;27;20035;-71
2023/01/22 01:35:15;;;;;;;19.53;6.77;;;;;;;;;;5116505;27;20035;-70
2023/01/22 01:37:41;;;;;;;16.87;6.63;;;;;;;;;;5133193;27;20129;-71
2023/01/22 01:40:07;;;;;;;16.37;6.57;;;;;;;;;;5115812;27;20031;-71
2023/01/22 01:42:34;;;;;;;16.97;6.77;;;;;;;;;;5115166;27;20170;-71
2023/01/22 01:45:18;;;;;;;17.43;6.77;;;;;;;;;;5131994;27;20042;-71
2023/01/22 01:47:45;;;;;;;17.07;6.13;;;;;;;;;;5115091;27;20134;-71
2023/01/22 01:50:13;;;;;;;17.40;6.90;;;;;;;;;;5115067;27;20038;-71
2023/01/22 01:52:39;;;;;;;13.37;6.40;;;;;;;;;;5114793;27;20035;-70
2023/01/22 01:55:05;;;;;;;13.87;6.67;;;;;;;;;;5131900;27;20362;-71
2023/01/22 01:57:32;;;;;;;16.07;6.93;;;;;;;;;;5114802;27;20034;-71
2023/01/22 02:00:03;;;;;;;20.70;7.43;;;;;;;;;;5132159;27;20087;-71
2023/01/22 02:02:40;;;;;;;;;;;;;;;;;;5149298;27;20059;-71
2023/01/22 02:05:07;;;;;;;18.27;6.90;;;;;;;;;;5114766;27;19915;-71
2023/01/22 02:07:32;;;;;;;18.67;6.60;;;;;;;;;;5097694;27;20437;-70
2023/01/22 02:09:58;;;;;;;18.17;7.27;;;;;;;;;;5148702;27;20034;-70
2023/01/22 02:12:24;;;;;;;16.27;7.00;;;;;;;;;;5114344;27;20375;-71
2023/01/22 02:14:50;;;;;;;18.40;6.87;;;;;;;;;;5101531;27;20031;-71
2023/01/22 02:17:31;;;;;;;16.63;6.30;;;;;;;;;;5120265;27;20046;-71
2023/01/22 02:19:57;;;;;;;16.27;7.27;;;;;;;;;;5101045;27;20096;-71
2023/01/22 02:22:29;;;;;;;15.83;6.40;;;;;;;;;;5100749;27;20078;-71
2023/01/22 02:24:55;;;;;;;15.90;7.00;;;;;;;;;;5100888;27;20035;-71
2023/01/22 02:27:21;;;;;;;16.73;7.10;;;;;;;;;;5083791;27;20381;-71
2023/01/22 02:29:48;;;;;;;17.97;7.10;;;;;;;;;;5118213;27;20069;-71
2023/01/22 02:32:14;;;;;;;18.43;6.57;;;;;;;;;;5117702;27;20453;-70
2023/01/22 02:34:40;;;;;;;16.33;6.70;;;;;;;;;;5117748;27;20479;-70
2023/01/22 02:37:06;;;;;;;17.73;7.73;;;;;;;;;;5100572;27;20085;-71
2023/01/22 02:39:31;;;;;;;18.13;7.53;;;;;;;;;;5100482;27;20043;-71
2023/01/22 02:42:00;;;;;;;14.70;6.87;;;;;;;;;;5117337;27;20392;-71
2023/01/22 02:44:26;;;;;;;21.53;7.50;;;;;;;;;;5117507;27;20530;-71
2023/01/22 02:46:51;;;;;;;15.17;7.40;;;;;;;;;;5117311;27;20042;-71
2023/01/22 02:49:17;;;;;;;21.53;7.87;;;;;;;;;;5100506;27;20031;-71
2023/01/22 02:51:43;;;;;;;12.73;6.80;;;;;;;;;;5117391;27;20118;-71
2023/01/22 02:54:10;;;;;;;14.37;6.80;;;;;;;;;;5117234;27;20096;-71
2023/01/22 02:56:35;;;;;;;18.57;7.83;;;;;;;;;;5100043;27;20413;-71
2023/01/22 02:59:02;;;;;;;18.43;7.27;;;;;;;;;;5100145;27;20491;-72
2023/01/22 03:01:27;;;;;;;15.97;7.33;;;;;;;;;;5099687;27;20031;-71
2023/01/22 03:03:54;;;;;;;13.50;7.20;;;;;;;;;;5117335;27;20381;-71
2023/01/22 03:06:21;;;;;;;15.03;6.80;;;;;;;;;;5117446;27;20042;-71
2023/01/22 03:08:47;;;;;;;21.27;8.00;;;;;;;;;;5117158;27;20484;-71
2023/01/22 03:11:13;;;;;;;20.70;7.60;;;;;;;;;;5116897;27;20031;-71
2023/01/22 03:21:56;;;;;;;19.27;7.33;;;;;;;;;;5116241;27;20034;-71
2023/01/22 03:24:22;;;;;;;16.33;7.70;;;;;;;;;;5116309;27;20027;-71
2023/01/22 03:26:48;;;;;;;19.73;7.73;;;;;;;;;;5082115;27;20392;-71
2023/01/22 03:29:15;;;;;;;21.63;7.97;;;;;;;;;;5099172;27;20031;-72
2023/01/22 03:31:40;;;;;;;21.47;8.90;;;;;;;;;;5134203;27;20038;-71
2023/01/22 03:34:06;;;;;;;15.97;7.10;;;;;;;;;;5099686;27;20353;-71
2023/01/22 03:36:33;;;;;;;16.20;8.00;;;;;;;;;;5099945;27;20372;-71
2023/01/22 03:39:03;;;;;;;17.97;7.63;;;;;;;;;;5099505;27;20034;-71
2023/01/22 03:41:28;;;;;;;23.40;8.93;;;;;;;;;;5116640;27;20039;-72
2023/01/22 03:43:54;;;;;;;22.30;8.17;;;;;;;;;;5099771;27;20065;-72
2023/01/22 03:46:24;;;;;;;24.88;8.02;;;;;;;;;;5098981;27;20027;-72
2023/01/22 03:48:54;;;;;;;21.93;7.40;;;;;;;;;;5133814;27;20485;-72
2023/01/22 03:51:20;;;;;;;20.80;8.10;;;;;;;;;;5115938;27;20039;-71
2023/01/22 03:53:46;;;;;;;17.90;7.80;;;;;;;;;;5115733;27;20038;-71
2023/01/22 03:56:13;;;;;;;18.17;7.27;;;;;;;;;;5115965;27;20031;-72
2023/01/22 03:58:39;;;;;;;16.57;8.13;;;;;;;;;;5098503;27;20042;-71
2023/01/22 04:01:07;;;;;;;18.60;8.20;;;;;;;;;;5098439;27;20053;-72
2023/01/22 04:03:33;;;;;;;16.50;7.87;;;;;;;;;;5098341;27;20111;-72
2023/01/22 04:05:59;;;;;;;22.37;8.33;;;;;;;;;;5098402;27;20088;-71
2023/01/22 04:08:26;;;;;;;18.50;7.53;;;;;;;;;;5098572;27;20422;-72
2023/01/22 04:10:53;;;;;;;21.13;7.63;;;;;;;;;;5115586;27;20031;-71
2023/01/22 04:13:19;;;;;;;20.33;7.63;;;;;;;;;;5115019;27;20117;-71
2023/01/22 04:15:47;;;;;;;24.60;8.17;;;;;;;;;;5114858;27;20102;-71
2023/01/22 04:18:35;;;;;;;18.70;7.63;;;;;;;;;;5118738;27;20047;-71
2023/01/22 04:21:15;;;;;;;23.30;8.03;;;;;;;;;;5114970;27;20640;-72
2023/01/22 04:23:49;;;;;;;21.47;8.10;;;;;;;;;;5115031;27;20408;-72
2023/01/22 04:26:14;;;;;;;23.53;7.73;;;;;;;;;;5115042;27;20035;-71
2023/01/22 04:28:41;;;;;;;18.40;7.80;;;;;;;;;;5115060;27;20046;-71
2023/01/22 04:31:08;;;;;;;21.77;7.87;;;;;;;;;;5097701;27;20038;-72
2023/01/22 04:33:51;;;;;;;26.40;8.50;;;;;;;;;;5115366;27;20101;-72
2023/01/22 04:36:21;;;;;;;16.10;7.83;;;;;;;;;;5114576;27;20046;-72
2023/01/22 04:38:47;;;;;;;16.03;7.50;;;;;;;;;;5097614;27;20027;-72
2023/01/22 04:41:13;;;;;;;21.60;8.10;;;;;;;;;;5081006;27;20088;-72
2023/01/22 04:43:39;;;;;;;24.30;9.33;;;;;;;;;;5097799;27;20042;-72
2023/01/22 04:46:05;;;;;;;21.40;9.03;;;;;;;;;;5097514;28;20350;-74
2023/01/22 04:48:32;;;;;;;21.93;8.80;;;;;;;;;;5097838;27;20035;-72
2023/01/22 04:50:59;;;;;;;21.03;9.10;;;;;;;;;;5097759;28;20035;-71
2023/01/22 04:53:27;;;;;;;19.97;9.43;;;;;;;;;;5114753;28;20126;-71
2023/01/22 04:55:54;;;;;;;24.43;9.07;;;;;;;;;;5098200;27;20039;-72
2023/01/22 04:58:20;;;;;;;20.50;8.20;;;;;;;;;;5097965;28;20035;-72
2023/01/22 05:00:46;;;;;;;26.70;9.50;;;;;;;;;;5097602;28;20031;-72
2023/01/22 05:03:12;;;;;;;24.30;9.57;;;;;;;;;;5114147;28;20058;-72
2023/01/22 05:05:40;;;;;;;20.43;9.37;;;;;;;;;;5097768;28;20074;-71
2023/01/22 05:08:05;;;;;;;19.90;8.17;;;;;;;;;;5114711;28;20062;-72
2023/01/22 05:10:35;;;;;;;19.27;8.37;;;;;;;;;;5097264;28;20050;-72
2023/01/22 05:13:04;;;;;;;26.47;9.60;;;;;;;;;;5114711;28;20031;-72
2023/01/22 05:15:31;;;;;;;22.67;9.20;;;;;;;;;;5131498;28;20461;-72
2023/01/22 05:18:02;;;;;;;29.33;9.73;;;;;;;;;;5097466;28;20402;-72
2023/01/22 05:20:30;;;;;;;27.13;9.40;;;;;;;;;;5097179;28;20062;-72
2023/01/22 05:22:58;;;;;;;26.73;10.10;;;;;;;;;;5080927;28;20039;-71
2023/01/22 05:25:24;;;;;;;22.80;8.53;;;;;;;;;;5114351;28;20054;-71
2023/01/22 05:27:51;;;;;;;23.53;9.20;;;;;;;;;;5114088;28;20169;-71
2023/01/22 05:30:34;;;;;;;23.08;9.95;;;;;;;;;;5097129;28;20035;-71
2023/01/22 05:33:14;;;;;;;16.33;8.40;;;;;;;;;;5114176;28;20035;-71
2023/01/22 05:35:39;;;;;;;27.50;9.77;;;;;;;;;;5114367;28;20065;-72
2023/01/22 05:38:05;;;;;;;23.60;9.63;;;;;;;;;;5080385;28;20039;-72
2023/01/22 05:40:31;;;;;;;31.07;10.87;;;;;;;;;;5097047;28;20031;-72
2023/01/22 05:42:57;;;;;;;27.53;10.63;;;;;;;;;;5113993;28;20926;-71
2023/01/22 05:45:22;;;;;;;29.07;9.97;;;;;;;;;;5097030;28;20498;-71
2023/01/22 05:48:06;;;;;;;23.87;9.93;;;;;;;;;;5114143;27;20438;-71
2023/01/22 05:50:39;;;;;;;24.45;9.77;;;;;;;;;;5100867;27;20050;-71
2023/01/22 05:53:08;;;;;;;21.98;9.52;;;;;;;;;;5134829;27;20031;-72
2023/01/22 05:55:36;;;;;;;25.43;9.57;;;;;;;;;;5134968;27;20028;-72
2023/01/22 05:58:03;;;;;;;27.20;9.87;;;;;;;;;;5100647;27;20063;-72
2023/01/22 06:00:29;;;;;;;24.63;10.50;;;;;;;;;;5084027;27;20031;-71
2023/01/22 06:02:59;;;;;;;24.40;11.03;;;;;;;;;;5118022;27;20055;-71
2023/01/22 06:05:27;;;;;;;27.90;10.20;;;;;;;;;;5100741;27;20035;-71
2023/01/22 06:08:00;;;;;;;24.40;9.97;;;;;;;;;;5117873;27;20453;-71
2023/01/22 06:10:33;;;;;;;24.43;10.10;;;;;;;;;;5084746;27;20030;-71
2023/01/22 06:12:59;;;;;;;25.13;10.47;;;;;;;;;;5135000;27;20079;-71
2023/01/22 06:15:25;;;;;;;28.63;10.43;;;;;;;;;;5100239;27;20031;-71
2023/01/22 06:18:00;;;;;;;24.57;10.47;;;;;;;;;;5100629;27;20454;-72
2023/01/22 06:20:26;;;;;;;28.67;11.97;;;;;;;;;;5100173;27;20472;-71
2023/01/22 06:22:52;;;;;;;29.93;11.30;;;;;;;;;;5117065;27;20053;-71
2023/01/22 06:25:17;;;;;;;27.23;10.13;;;;;;;;;;5100093;27;20066;-71
2023/01/22 06:27:58;;;;;;;23.23;10.73;;;;;;;;;;5117474;27;20062;-72
2023/01/22 06:30:24;;;;;;;27.77;9.80;;;;;;;;;;5100130;27;20452;-71
2023/01/22 06:32:53;;;;;;;27.03;10.47;;;;;;;;;;5100107;27;20039;-71
2023/01/22 06:35:18;;;;;;;31.53;10.80;;;;;;;;;;5100195;27;20031;-71
2023/01/22 06:37:44;;;;;;;24.43;11.10;;;;;;;;;;5100187;27;20031;-72
2023/01/22 06:40:10;;;;;;;25.77;11.07;;;;;;;;;;5100104;27;20039;-71
2023/01/22 06:42:40;;;;;;;28.60;11.73;;;;;;;;;;5100299;27;20046;-71
2023/01/22 06:45:07;;;;;;;25.87;10.90;;;;;;;;;;5100241;27;20035;-72
2023/01/22 06:47:34;;;;;;;28.70;10.93;;;;;;;;;;5117161;27;20031;-73
2023/01/22 06:50:01;;;;;;;32.20;12.13;;;;;;;;;;5117424;27;20039;-73
2023/01/22 06:52:26;;;;;;;25.40;11.60;;;;;;;;;;5099935;27;20496;-72
2023/01/22 06:54:53;;;;;;;31.10;12.73;;;;;;;;;;5083564;27;20043;-72
2023/01/22 06:57:20;;;;;;;39.07;12.60;;;;;;;;;;5099656;27;20396;-72
2023/01/22 06:59:46;;;;;;;28.93;11.67;;;;;;;;;;5099815;27;20035;-72
2023/01/22 07:02:16;;;;;;;29.30;11.70;;;;;;;;;;5099732;27;20055;-73
2023/01/22 07:04:42;;;;;;;30.07;11.97;;;;;;;;;;5134057;27;20380;-72
2023/01/22 07:07:07;;;;;;;27.20;12.03;;;;;;;;;;5099432;27;20039;-73
2023/01/22 07:09:33;;;;;;;33.27;13.20;;;;;;;;;;5116946;27;20469;-72
2023/01/22 07:12:00;;;;;;;33.90;12.30;;;;;;;;;;5099394;27;20411;-71
2023/01/22 07:14:37;;;;;;;37.67;12.37;;;;;;;;;;5099503;27;20039;-73
2023/01/22 07:17:03;;;;;;;31.23;12.30;;;;;;;;;;5082803;27;20368;-72
2023/01/22 07:19:32;;;;;;;30.93;12.20;;;;;;;;;;5099464;27;20031;-72
2023/01/22 07:22:00;;;;;;;35.93;12.60;;;;;;;;;;5131581;27;20059;-73
2023/01/22 07:24:26;;;;;;;28.27;11.50;;;;;;;;;;5099301;27;20118;-73
2023/01/22 07:26:51;;;;;;;31.27;12.90;;;;;;;;;;5116314;27;20388;-73
2023/01/22 07:29:17;;;;;;;30.17;12.03;;;;;;;;;;5099211;27;20035;-72
2023/01/22 07:31:43;;;;;;;31.10;12.03;;;;;;;;;;5116056;27;20031;-72
2023/01/22 07:34:09;;;;;;;32.03;12.10;;;;;;;;;;5099107;27;20095;-73
2023/01/22 07:36:36;;;;;;;31.80;12.67;;;;;;;;;;5082617;27;20038;-73
2023/01/22 07:39:04;;;;;;;40.60;13.77;;;;;;;;;;5116070;27;20027;-73
2023/01/22 07:41:30;;;;;;;34.70;13.50;;;;;;;;;;5098893;27;20038;-73
2023/01/22 07:43:59;;;;;;;30.70;13.37;;;;;;;;;;5115979;27;20098;-72
2023/01/22 07:46:25;;;;;;;32.53;13.37;;;;;;;;;;5115799;27;20054;-72
2023/01/22 07:48:51;;;;;;;31.87;12.77;;;;;;;;;;5132675;27;20046;-72
2023/01/22 07:51:17;;;;;;;29.00;12.77;;;;;;;;;;5097972;27;20047;-72
2023/01/22 07:53:42;;;;;;;31.90;13.50;;;;;;;;;;5098852;27;20042;-72
2023/01/22 07:56:08;;;;;;;42.33;14.00;;;;;;;;;;5098423;27;20510;-72
2023/01/22 07:58:34;;;;;;;33.43;13.67;;;;;;;;;;5098837;27;20456;-72
2023/01/22 08:00:59;;;;;;;31.93;13.00;;;;;;;;;;5098484;27;20091;-72
2023/01/22 08:03:25;;;;;;;37.03;12.13;;;;;;;;;;5097991;27;20098;-72
2023/01/22 08:05:51;;;;;;;43.73;14.07;;;;;;;;;;5098335;27;20035;-72
2023/01/22 08:08:19;;;;;;;35.17;13.23;;;;;;;;;;5097990;27;20488;-71
2023/01/22 08:10:45;;;;;;;34.50;13.47;;;;;;;;;;5098210;27;20063;-73
2023/01/22 08:13:11;;;;;;;36.60;13.77;;;;;;;;;;5097380;27;20038;-72
2023/01/22 08:15:36;;;;;;;34.10;13.63;;;;;;;;;;5115582;27;20060;-71
2023/01/22 08:18:03;;;;;;;31.97;13.50;;;;;;;;;;5132291;27;20039;-71
2023/01/22 08:20:29;;;;;;;32.67;12.57;;;;;;;;;;5132187;27;20034;-72
2023/01/22 08:22:59;;;;;;;38.17;14.50;;;;;;;;;;5097799;27;20043;-71
2023/01/22 08:25:27;;;;;;;38.00;12.70;;;;;;;;;;5098100;27;20039;-72
2023/01/22 08:27:52;;;;;;;34.07;13.77;;;;;;;;;;5115204;27;20073;-71
2023/01/22 08:30:18;;;;;;;31.23;12.87;;;;;;;;;;5098041;27;20442;-72
2023/01/22 08:32:49;;;;;;;32.83;12.87;;;;;;;;;;5097924;27;20031;-72
2023/01/22 08:35:15;;;;;;;37.63;14.80;;;;;;;;;;5132484;27;20031;-71
2023/01/22 08:37:43;;;;;;;34.27;13.80;;;;;;;;;;5130879;27;20034;-72
2023/01/22 08:40:09;;;;;;;33.13;12.97;;;;;;;;;;5096854;27;20033;-70
2023/01/22 08:42:37;;;;;;;37.30;13.80;;;;;;;;;;5097962;27;20042;-71
2023/01/22 08:45:03;;;;;;;40.93;14.50;;;;;;;;;;5099780;27;20030;-71
2023/01/22 08:47:30;;;;;;;34.63;14.60;;;;;;;;;;5136444;27;20109;-72
2023/01/22 08:49:56;;;;;;;29.00;12.13;;;;;;;;;;5097722;27;20056;-72
2023/01/22 08:52:21;;;;;;;30.77;12.93;;;;;;;;;;5131778;27;20066;-73
2023/01/22 08:54:48;;;;;;;37.37;13.90;;;;;;;;;;5098007;27;20126;-73
2023/01/22 08:57:13;;;;;;;32.30;12.57;;;;;;;;;;5115159;27;20035;-74
2023/01/22 08:59:39;;;;;;;40.17;14.63;;;;;;;;;;5081240;28;20042;-75
2023/01/22 09:02:10;;;;;;;31.50;13.83;;;;;;;;;;5113838;28;20465;-72
2023/01/22 09:04:36;;;;;;;36.05;13.65;;;;;;;;;;5133104;28;20039;-73
2023/01/22 09:07:02;;;;;;;32.33;13.77;;;;;;;;;;5131819;28;20031;-72
2023/01/22 09:09:28;;;;;;;38.90;13.70;;;;;;;;;;5097609;28;20035;-72
2023/01/22 09:11:53;;;;;;;31.83;13.97;;;;;;;;;;5080641;28;20135;-69
2023/01/22 09:14:20;;;;;;;39.53;15.40;;;;;;;;;;5132739;28;20429;-72
2023/01/22 09:16:47;;;;;;;36.07;14.50;;;;;;;;;;5097682;28;20035;-73
2023/01/22 09:19:16;;;;;;;41.83;14.87;;;;;;;;;;5132446;28;20035;-73
2023/01/22 09:21:42;;;;;;;46.97;14.23;;;;;;;;;;5114455;28;20038;-72
2023/01/22 09:24:08;;;;;;;31.83;13.13;;;;;;;;;;5100415;27;20054;-74
2023/01/22 09:26:35;;;;;;;29.57;13.70;;;;;;;;;;5137022;27;20035;-74
2023/01/22 09:29:04;;;;;;;43.77;17.47;;;;;;;;;;5101801;27;20090;-74
2023/01/22 09:31:34;;;;;;;34.77;13.97;;;;;;;;;;5118481;27;20102;-73
2023/01/22 09:34:02;;;;;;;31.60;13.13;;;;;;;;;;5100994;27;20457;-73
2023/01/22 09:36:28;;;;;;;40.87;13.70;;;;;;;;;;5116265;27;20051;-73
2023/01/22 09:38:55;;;;;;;38.83;13.47;;;;;;;;;;5098903;27;20046;-73
2023/01/22 09:41:26;;;;;;;35.83;13.27;;;;;;;;;;5097921;27;20031;-74
2023/01/22 09:43:54;;;;;;;29.73;13.30;;;;;;;;;;5115647;27;20035;-75
2023/01/22 09:46:29;;;;;;;37.47;13.63;;;;;;;;;;5132990;27;20453;-75
2023/01/22 09:49:02;;;;;;;37.67;13.80;;;;;;;;;;5098725;27;20215;-75
2023/01/22 09:51:28;;;;;;;36.90;13.33;;;;;;;;;;5134793;27;20118;-73
2023/01/22 09:53:55;;;;;;;37.03;15.73;;;;;;;;;;5117895;27;20035;-75
2023/01/22 09:56:31;;;;;;;33.03;14.77;;;;;;;;;;5135537;27;20096;-75
2023/01/22 09:58:57;;;;;;;31.03;13.80;;;;;;;;;;5100582;27;20066;-74
2023/01/22 10:01:22;;;;;;;35.47;14.27;;;;;;;;;;5134495;27;20092;-74
2023/01/22 10:03:51;;;;;;;38.30;15.40;;;;;;;;;;5082799;27;20154;-73
2023/01/22 10:06:19;;;;;;;41.07;14.63;;;;;;;;;;5116986;27;20102;-74
2023/01/22 10:08:45;;;;;;;38.60;14.27;;;;;;;;;;5135234;27;20722;-74
2023/01/22 10:11:11;;;;;;;28.47;12.50;;;;;;;;;;5083616;27;20039;-73
2023/01/22 10:13:37;;;;;;;32.23;13.40;;;;;;;;;;5117779;27;20054;-75
2023/01/22 10:16:06;;;;;;;38.03;13.73;;;;;;;;;;5117801;27;20039;-74
2023/01/22 10:18:53;;;;;;;31.47;13.50;;;;;;;;;;5117583;27;20030;-74
2023/01/22 10:21:30;;;;;;;29.90;13.33;;;;;;;;;;5077354;27;20042;-74
2023/01/22 10:24:00;;;;;;;29.90;13.70;;;;;;;;;;5117992;27;20129;-74
2023/01/22 10:26:37;;;;;;;35.00;12.83;;;;;;;;;;5117291;27;20290;-74
2023/01/22 10:29:08;;;;;;;31.87;12.50;;;;;;;;;;5100478;27;20118;-73
2023/01/22 10:31:35;;;;;;;41.78;13.13;;;;;;;;;;5117692;27;20037;-72
2023/01/22 10:34:21;;;;;;;34.10;13.00;;;;;;;;;;5133648;27;20107;-72
2023/01/22 10:36:52;;;;;;;30.23;12.10;;;;;;;;;;5120949;27;20552;-73
2023/01/22 10:39:18;;;;;;;31.17;11.83;;;;;;;;;;5134015;27;20039;-75
2023/01/22 10:42:11;;;;;;;31.70;12.10;;;;;;;;;;5100534;27;20079;-75
2023/01/22 10:44:41;;;;;;;30.20;13.20;;;;;;;;;;5116485;27;20035;-75
2023/01/22 10:47:08;;;;;;;31.13;12.80;;;;;;;;;;5116931;27;20055;-74
2023/01/22 10:49:33;;;;;;;35.13;13.43;;;;;;;;;;5099728;27;20487;-75
2023/01/22 10:52:05;;;;;;;33.17;13.03;;;;;;;;;;5099762;27;20027;-74
2023/01/22 10:54:32;;;;;;;30.40;12.95;;;;;;;;;;5099745;27;20039;-74
2023/01/22 10:57:03;;;;;;;29.30;12.87;;;;;;;;;;5099696;27;20210;-75
2023/01/22 10:59:30;;;;;;;35.30;13.17;;;;;;;;;;5100191;27;20050;-74
2023/01/22 11:01:57;;;;;;;29.43;13.03;;;;;;;;;;5099764;27;20039;-74
2023/01/22 11:04:25;;;;;;;31.83;13.03;;;;;;;;;;5134119;27;20034;-74
2023/01/22 11:06:56;;;;;;;32.83;12.97;;;;;;;;;;5100250;27;20125;-74
2023/01/22 11:09:30;;;;;;;31.23;12.37;;;;;;;;;;5116466;27;20125;-75
2023/01/22 11:12:11;;;;;;;29.13;12.67;;;;;;;;;;5116725;27;20137;-75
2023/01/22 11:14:37;;;;;;;28.60;12.10;;;;;;;;;;5134495;27;20063;-75
2023/01/22 11:17:18;;;;;;;34.60;12.70;;;;;;;;;;5116723;27;20518;-75
2023/01/22 11:19:47;;;;;;;33.30;12.38;;;;;;;;;;5116704;27;20035;-75
2023/01/22 11:22:21;;;;;;;26.67;12.57;;;;;;;;;;5099665;27;20035;-75
2023/01/22 11:24:48;;;;;;;30.73;12.40;;;;;;;;;;5116186;27;20039;-73
2023/01/22 11:27:13;;;;;;;29.63;12.77;;;;;;;;;;5114598;27;20031;-71
2023/01/22 11:29:45;;;;;;;30.93;12.47;;;;;;;;;;5076991;27;20032;-73
2023/01/22 11:32:12;;;;;;;33.93;13.47;;;;;;;;;;5080386;27;20055;-74
2023/01/22 11:34:49;;;;;;;34.73;13.43;;;;;;;;;;5081085;27;20580;-74
2023/01/22 11:37:18;;;;;;;32.60;13.37;;;;;;;;;;5082003;27;20035;-74
2023/01/22 11:39:46;;;;;;;30.03;13.40;;;;;;;;;;5096874;27;20033;-72
2023/01/22 11:42:13;;;;;;;41.40;13.07;;;;;;;;;;5078437;27;20035;-72
2023/01/22 11:44:52;;;;;;;36.40;14.77;;;;;;;;;;5080596;27;20023;-75
2023/01/22 11:47:30;;;;;;;35.20;13.27;;;;;;;;;;5112137;27;20091;-73
2023/01/22 11:49:55;;;;;;;35.93;14.30;;;;;;;;;;5112782;27;20039;-71
2023/01/22 11:52:40;;;;;;;33.97;13.10;;;;;;;;;;5079595;27;20096;-74
2023/01/22 11:55:15;;;;;;;33.47;13.53;;;;;;;;;;5113622;27;20039;-75
2023/01/22 11:57:45;;;;;;;38.43;14.47;;;;;;;;;;5079109;27;20050;-75
2023/01/22 12:00:14;;;;;;;33.50;14.10;;;;;;;;;;5114017;27;20377;-74
2023/01/22 12:02:53;;;;;;;30.75;13.48;;;;;;;;;;5087028;28;20079;-74
2023/01/22 12:05:27;;;;;;;31.73;13.87;;;;;;;;;;5105760;28;20456;-76
2023/01/22 12:08:13;;;;;;;32.33;13.83;;;;;;;;;;5087635;28;20050;-75
2023/01/22 12:10:48;;;;;;;33.70;14.47;;;;;;;;;;5071286;28;20036;-74
2023/01/22 12:13:33;;;;;;;36.23;14.47;;;;;;;;;;5088290;28;20044;-74
2023/01/22 12:16:11;;;;;;;39.07;14.47;;;;;;;;;;5075040;28;20040;-75
2023/01/22 12:18:48;;;;;;;32.10;13.77;;;;;;;;;;5074404;28;20455;-76
2023/01/22 12:21:30;;;;;;;38.40;14.37;;;;;;;;;;5074996;28;20093;-75
2023/01/22 12:24:01;;;;;;;30.37;13.87;;;;;;;;;;5057747;28;20048;-75
2023/01/22 12:26:36;;;;;;;33.07;14.37;;;;;;;;;;5057884;28;20122;-74
2023/01/22 12:29:07;;;;;;;29.37;13.67;;;;;;;;;;5091357;28;20435;-74
2023/01/22 12:31:36;;;;;;;34.45;15.02;;;;;;;;;;5058042;28;20477;-72
2023/01/22 12:34:03;;;;;;;36.43;14.20;;;;;;;;;;5092559;28;20038;-72
2023/01/22 12:36:31;;;;;;;32.73;14.57;;;;;;;;;;5091565;28;20036;-73
2023/01/22 12:39:02;;;;;;;35.00;14.33;;;;;;;;;;5091047;28;20036;-74
2023/01/22 12:41:28;;;;;;;;;;;;;;;;;;5074700;28;20040;-73
2023/01/22 12:44:06;;;;;;;28.63;12.83;;;;;;;;;;5057285;28;19920;-70
2023/01/22 12:46:41;;;;;;;31.60;13.47;;;;;;;;;;5090855;28;20089;-72
2023/01/22 12:49:08;;;;;;;31.83;13.83;;;;;;;;;;5057589;28;20028;-75
2023/01/22 12:51:33;;;;;;;34.57;14.70;;;;;;;;;;5073494;28;20063;-74
2023/01/22 12:54:18;;;;;;;28.13;13.57;;;;;;;;;;5090375;28;20390;-74
2023/01/22 12:56:44;;;;;;;33.40;15.07;;;;;;;;;;5090520;28;20135;-74
2023/01/22 12:59:29;;;;;;;41.20;14.27;;;;;;;;;;5090200;28;20119;-74
2023/01/22 13:02:02;;;;;;;33.53;15.43;;;;;;;;;;5074176;28;20039;-74
2023/01/22 13:04:29;;;;;;;32.10;14.23;;;;;;;;;;5114213;28;20130;-74
2023/01/22 13:07:18;;;;;;;36.83;14.43;;;;;;;;;;5131262;28;20046;-74
2023/01/22 13:09:44;;;;;;;37.43;14.50;;;;;;;;;;5095839;28;20088;-74
2023/01/22 13:12:10;;;;;;;33.70;15.37;;;;;;;;;;5095022;28;20032;-74
2023/01/22 13:14:38;;;;;;;40.70;15.93;;;;;;;;;;5112907;28;20143;-75
2023/01/22 13:17:17;;;;;;;34.73;15.07;;;;;;;;;;5129026;28;20121;-74
2023/01/22 13:19:46;;;;;;;34.20;13.83;;;;;;;;;;5076016;28;20064;-75
2023/01/22 13:22:21;;;;;;;37.13;16.57;;;;;;;;;;5094687;28;20386;-73
2023/01/22 13:25:00;;;;;;;38.87;14.83;;;;;;;;;;5095436;28;20104;-76
2023/01/22 13:27:32;;;;;;;38.73;15.23;;;;;;;;;;5111154;28;20039;-72
2023/01/22 13:30:14;;;;;;;36.23;14.13;;;;;;;;;;5111325;28;20455;-76
2023/01/22 13:32:40;;;;;;;33.97;15.27;;;;;;;;;;5111439;28;20023;-76
2023/01/22 13:35:06;;;;;;;39.57;15.23;;;;;;;;;;5094650;28;20525;-77
2023/01/22 13:37:34;;;;;;;36.20;16.17;;;;;;;;;;5111654;28;20039;-77
2023/01/22 13:40:33;;;;;;;42.97;15.60;;;;;;;;;;5094312;28;20031;-74
2023/01/22 13:43:01;;;;;;;44.35;16.58;;;;;;;;;;5053178;28;20380;-75
2023/01/22 13:45:28;;;;;;;36.30;16.50;;;;;;;;;;5092913;28;20035;-75
2023/01/22 13:47:58;;;;;;;38.20;16.47;;;;;;;;;;5128678;28;20525;-75
2023/01/22 13:50:24;;;;;;;;;;;;;;;;;;5111931;28;20042;-72
2023/01/22 13:52:51;;;;;;;40.23;15.20;;;;;;;;;;5110002;28;19945;-73
2023/01/22 13:55:17;;;;;;;44.43;18.43;;;;;;;;;;5107029;28;20468;-74
2023/01/22 13:57:54;;;;;;;39.83;16.23;;;;;;;;;;5073096;28;20095;-74
2023/01/22 14:00:28;;;;;;;40.30;15.90;;;;;;;;;;5129482;28;20053;-72
2023/01/22 14:02:54;;;;;;;38.53;16.53;;;;;;;;;;5095287;28;20133;-74
2023/01/22 14:05:21;;;;;;;45.47;16.90;;;;;;;;;;5077773;28;20566;-74
2023/01/22 14:07:47;;;;;;;37.00;15.83;;;;;;;;;;5130604;28;20404;-73
2023/01/22 14:10:20;;;;;;;39.67;16.73;;;;;;;;;;5097612;27;20042;-75
2023/01/22 14:12:57;;;;;;;41.27;17.43;;;;;;;;;;5114424;27;20035;-78
2023/01/22 14:15:23;;;;;;;43.30;16.70;;;;;;;;;;5078796;27;20024;-75
2023/01/22 14:17:49;;;;;;;45.33;17.47;;;;;;;;;;5099925;27;20494;-74
2023/01/22 14:20:16;;;;;;;42.10;16.90;;;;;;;;;;5098530;27;20036;-78
2023/01/22 14:22:42;;;;;;;46.07;16.87;;;;;;;;;;5096487;27;20058;-76
2023/01/22 14:25:09;;;;;;;44.57;17.77;;;;;;;;;;5079633;27;20058;-77
2023/01/22 14:27:39;;;;;;;35.90;15.90;;;;;;;;;;5098321;27;20027;-76
2023/01/22 14:30:06;;;;;;;34.85;16.58;;;;;;;;;;5097978;27;20023;-76
2023/01/22 14:32:31;;;;;;;34.13;15.97;;;;;;;;;;5101087;27;20061;-75
2023/01/22 14:34:58;;;;;;;42.53;17.27;;;;;;;;;;5116235;27;20465;-75
2023/01/22 14:37:23;;;;;;;40.43;16.47;;;;;;;;;;5099705;27;20031;-74
2023/01/22 14:39:50;;;;;;;43.33;17.13;;;;;;;;;;5097908;27;20076;-74
2023/01/22 14:42:16;;;;;;;45.47;17.70;;;;;;;;;;5098609;27;20047;-75